This is the latest recevied weather packets stored in our database for station/object KBTL-WX. If no packets are shown the sender has not sent any weather packets the latest 1 day(s).
| Time | Temp. | Humidity | Pressure | Rain* | Wind** | Luminosity | Snow |
|---|---|---|---|---|---|---|---|
| 1778079642 | 10° C | 38% | 980.3 hPa | 0 mm | - | - | - |
| 1778077834 | 8.89° C | 44% | 979.9 hPa | 0 mm | - | - | - |
| 1778074234 | 7.78° C | 55% | 979 hPa | 0 mm | - | - | - |
| 1778071519 | 6.67° C | 64% | 977.9 hPa | 0 mm | - | - | - |
| 1778069719 | 5.56° C | 64% | 977.9 hPa | 0 mm | - | - | - |
| 1778067918 | 5° C | 70% | 977.2 hPa | 0 mm | - | - | - |
| 1778066116 | 3.89° C | 74% | 977.2 hPa | 0 mm | - | - | - |
| 1778064316 | 3.33° C | 71% | 977 hPa | 0 mm | - | - | - |
| 1778063431 | 3.33° C | 71% | 977 hPa | 0 mm | - | - | - |
| 1778062516 | 3.89° C | 71% | 977 hPa | 0 mm | - | - | - |
| 1778060716 | 3.89° C | 68% | 976 hPa | 0 mm | - | - | - |
| 1778058041 | 5° C | 68% | 976.5 hPa | 0 mm | - | - | - |
| 1778057116 | 5° C | 64% | 975.8 hPa | 0 mm | - | - | - |
| 1778056228 | 5° C | 68% | 976.4 hPa | 0 mm | - | - | - |
| 1778054442 | 5° C | 68% | 976.4 hPa | 0 mm | - | - | - |
| 1778053515 | 5.56° C | 68% | 976.4 hPa | 0 mm | - | - | - |
| 1778052633 | 6.11° C | 68% | 976.4 hPa | 0 mm | - | - | - |
| 1778051715 | 6.11° C | 68% | 976.4 hPa | 0 mm | - | - | - |
| 1778049030 | 6.11° C | 67% | 976.4 hPa | 0 mm | - | - | - |
| 1778047240 | 6.67° C | 67% | 976.4 hPa | 0 mm | - | - | - |
| 1778046316 | 6.67° C | 67% | 976.9 hPa | 0 mm | - | - | - |
| 1778043642 | 7.22° C | 67% | 976.5 hPa | 0 mm | - | - | - |
| 1778042716 | 7.78° C | 57% | 977.6 hPa | 0 mm | - | - | - |
| 1778041829 | 7.78° C | 61% | 976.9 hPa | 0 mm | - | - | - |
| 1778040915 | 6.67° C | 61% | 976.9 hPa | 0 mm | - | - | - |
* Rain latest hour (hover to see other rain measurements)
** Current wind speed in m/s (hover to see current wind gust speed)